Time;durP1;ratioP1;P1;durP2;ratioP2;P2;SDS_P1;SDS_P2;PMS_P1;PMS_P2;Temp;Humidity;BMP_temperature;BMP_pressure;BME280_temperature;BME280_humidity;BME280_pressure;Samples;Min_cycle;Max_cycle;Signal;HPM_P1;HPM_P2
2023/03/30 00:01:54;;;;;;;14.88;8.65;;;9.40;99.90;;;;;;4997053;28;20052;-72
2023/03/30 00:04:21;;;;;;;11.60;8.82;;;9.40;99.90;;;;;;5041422;28;20036;-71
2023/03/30 00:06:48;;;;;;;15.27;9.57;;;9.30;99.90;;;;;;5028331;28;20079;-71
2023/03/30 00:09:14;;;;;;;16.02;9.68;;;9.40;99.90;;;;;;5024900;28;20044;-71
2023/03/30 00:11:40;;;;;;;15.52;10.52;;;9.40;99.90;;;;;;5025399;28;20071;-72
2023/03/30 00:14:05;;;;;;;11.80;8.65;;;9.40;99.90;;;;;;5031584;28;20056;-72
2023/03/30 00:16:31;;;;;;;14.82;8.65;;;9.40;99.90;;;;;;5024858;28;20076;-72
2023/03/30 00:18:57;;;;;;;13.18;9.07;;;9.40;99.90;;;;;;5036973;28;20041;-71
2023/03/30 00:21:23;;;;;;;13.52;8.57;;;9.40;99.90;;;;;;5030575;28;20114;-71
2023/03/30 00:23:49;;;;;;;12.15;8.00;;;9.40;99.90;;;;;;5031920;28;20041;-72
2023/03/30 00:26:15;;;;;;;13.43;8.45;;;9.30;99.90;;;;;;5009867;28;20045;-72
2023/03/30 00:28:41;;;;;;;13.20;8.32;;;9.30;99.90;;;;;;5003391;28;20050;-72
2023/03/30 00:31:07;;;;;;;15.48;9.00;;;9.40;99.90;;;;;;5031556;28;20053;-71
2023/03/30 00:33:34;;;;;;;12.95;8.55;;;9.40;99.90;;;;;;5049134;28;20068;-72
2023/03/30 00:36:00;;;;;;;16.13;10.50;;;9.40;99.90;;;;;;5040980;28;20049;-71
2023/03/30 00:38:26;;;;;;;16.52;9.30;;;9.40;99.90;;;;;;4998254;28;20069;-71
2023/03/30 00:40:53;;;;;;;16.42;10.32;;;9.40;99.90;;;;;;5026027;28;20406;-72
2023/03/30 00:43:19;;;;;;;16.38;10.50;;;9.50;99.90;;;;;;5028194;28;20677;-72
2023/03/30 00:45:44;;;;;;;12.23;9.15;;;9.40;99.90;;;;;;5019896;28;20110;-72
2023/03/30 00:48:20;;;;;;;16.27;11.13;;;9.40;99.90;;;;;;5021804;28;20111;-72
2023/03/30 00:50:52;;;;;;;15.40;9.30;;;9.50;99.90;;;;;;5002888;28;20042;-71
2023/03/30 00:53:20;;;;;;;17.25;9.75;;;9.40;99.90;;;;;;5028264;28;20124;-71
2023/03/30 00:55:46;;;;;;;15.98;9.93;;;9.40;99.90;;;;;;5023161;28;20037;-72
2023/03/30 00:58:12;;;;;;;18.15;10.57;;;9.30;99.90;;;;;;5013431;28;20056;-72
2023/03/30 01:00:38;;;;;;;19.08;11.18;;;9.30;99.90;;;;;;4994405;28;20122;-71
2023/03/30 01:03:10;;;;;;;13.85;9.95;;;9.30;99.90;;;;;;4999470;28;20111;-71
2023/03/30 01:05:37;;;;;;;17.95;11.55;;;9.20;99.90;;;;;;5029678;28;20537;-72
2023/03/30 01:08:06;;;;;;;16.13;10.00;;;9.30;99.90;;;;;;5006626;28;20128;-71
2023/03/30 01:10:33;;;;;;;16.20;9.38;;;9.30;99.90;;;;;;5005481;28;20837;-71
2023/03/30 01:13:00;;;;;;;17.42;11.30;;;9.30;99.90;;;;;;5036008;28;20042;-71
2023/03/30 01:15:27;;;;;;;15.45;12.63;;;9.20;99.90;;;;;;5000274;28;20064;-71
2023/03/30 01:18:07;;;;;;;12.88;9.48;;;9.10;99.90;;;;;;4996181;28;20096;-72
2023/03/30 01:21:07;;;;;;;14.95;10.73;;;9.10;99.90;;;;;;5046274;28;20041;-71
2023/03/30 01:23:45;;;;;;;17.20;10.50;;;9.10;99.90;;;;;;5027005;28;20420;-72
2023/03/30 01:26:49;;;;;;;17.67;10.73;;;9.10;99.90;;;;;;5043612;28;20128;-71
2023/03/30 01:29:48;;;;;;;14.57;10.60;;;9.10;99.90;;;;;;5033556;28;20386;-71
2023/03/30 01:32:13;;;;;;;;;;;9.10;99.90;;;;;;5015562;28;20045;-72
2023/03/30 01:35:19;;;;;;;15.70;9.23;;;9.10;99.90;;;;;;5039120;28;19912;-72
2023/03/30 01:37:59;;;;;;;16.70;10.20;;;9.10;99.90;;;;;;5028607;28;20120;-71
2023/03/30 01:40:32;;;;;;;14.77;9.00;;;9.10;99.90;;;;;;5020364;28;20099;-72
2023/03/30 01:43:00;;;;;;;18.00;11.05;;;9.10;99.90;;;;;;5013392;28;20047;-71
2023/03/30 01:45:45;;;;;;;14.80;8.98;;;9.10;99.90;;;;;;5027925;28;20041;-71
2023/03/30 01:48:30;;;;;;;16.13;10.05;;;9.10;99.90;;;;;;5046023;28;20052;-72
2023/03/30 01:51:20;;;;;;;17.38;9.63;;;9.00;99.90;;;;;;5039030;28;20099;-71
2023/03/30 01:54:05;;;;;;;13.98;8.82;;;9.10;99.90;;;;;;5000450;28;20041;-71
2023/03/30 01:56:34;;;;;;;14.95;10.45;;;9.00;99.90;;;;;;5031674;28;20160;-71
2023/03/30 01:59:16;;;;;;;13.23;10.20;;;9.00;99.90;;;;;;5005581;28;20808;-71
2023/03/30 02:01:42;;;;;;;15.20;9.48;;;9.00;99.90;;;;;;5035928;28;20052;-71
2023/03/30 02:04:09;;;;;;;13.32;9.02;;;9.00;99.90;;;;;;5048066;28;20049;-71
2023/03/30 02:06:43;;;;;;;15.00;10.52;;;8.90;99.90;;;;;;5031805;28;20477;-71
2023/03/30 02:09:11;;;;;;;17.52;10.45;;;8.90;99.90;;;;;;5005184;28;20343;-71
2023/03/30 02:11:37;;;;;;;14.65;9.57;;;8.90;99.90;;;;;;5021770;28;20046;-71
2023/03/30 02:14:03;;;;;;;14.57;9.68;;;9.00;99.90;;;;;;5030855;28;20056;-72
2023/03/30 02:16:40;;;;;;;18.70;10.20;;;8.90;99.90;;;;;;5044107;28;20054;-71
2023/03/30 02:19:06;;;;;;;14.13;9.13;;;8.90;99.90;;;;;;5011968;28;20045;-71
2023/03/30 02:21:32;;;;;;;12.60;9.10;;;8.90;99.90;;;;;;5012222;28;20049;-71
2023/03/30 02:23:58;;;;;;;14.20;9.50;;;8.90;99.90;;;;;;5014553;28;20045;-71
2023/03/30 02:26:23;;;;;;;15.25;9.65;;;8.90;99.90;;;;;;5008047;28;20135;-71
2023/03/30 02:28:49;;;;;;;15.88;9.50;;;8.90;99.90;;;;;;5028151;28;20052;-71
2023/03/30 02:31:15;;;;;;;18.15;10.18;;;8.80;99.90;;;;;;5027488;28;20128;-73
2023/03/30 02:33:49;;;;;;;15.88;10.27;;;8.80;99.90;;;;;;5018622;28;20049;-73
2023/03/30 02:36:56;;;;;;;14.63;8.98;;;8.80;99.90;;;;;;5025660;28;20053;-73
2023/03/30 02:39:33;;;;;;;14.93;10.33;;;8.80;99.90;;;;;;5037585;28;20074;-73
2023/03/30 02:42:11;;;;;;;15.50;9.93;;;8.80;99.90;;;;;;5039540;28;20092;-73
2023/03/30 02:45:28;;;;;;;13.85;9.30;;;8.80;99.90;;;;;;5044660;28;20481;-73
2023/03/30 02:48:06;;;;;;;15.30;9.80;;;8.80;99.90;;;;;;5037322;28;20135;-73
2023/03/30 02:50:49;;;;;;;15.57;9.52;;;8.90;99.90;;;;;;5052241;28;20044;-73
2023/03/30 02:53:35;;;;;;;14.50;8.88;;;9.00;99.90;;;;;;5044377;28;20150;-73
2023/03/30 02:56:20;;;;;;;12.00;8.40;;;9.10;99.90;;;;;;5017259;28;20053;-73
2023/03/30 02:58:53;;;;;;;10.38;7.40;;;9.10;99.90;;;;;;5046650;28;20132;-73
2023/03/30 03:01:43;;;;;;;11.18;8.63;;;9.10;99.90;;;;;;5039189;28;20041;-73
2023/03/30 03:04:09;;;;;;;14.20;8.93;;;9.10;99.90;;;;;;5034679;28;20045;-71
2023/03/30 03:06:36;;;;;;;13.27;7.80;;;9.00;99.90;;;;;;5010815;28;20067;-71
2023/03/30 03:09:02;;;;;;;11.68;8.15;;;9.10;99.90;;;;;;5002037;28;20041;-71
2023/03/30 03:11:28;;;;;;;14.68;8.07;;;9.10;99.90;;;;;;5029299;28;20081;-71
2023/03/30 03:13:54;;;;;;;12.43;7.93;;;9.10;99.90;;;;;;5036108;28;20102;-71
2023/03/30 03:16:20;;;;;;;12.80;8.73;;;9.10;99.90;;;;;;5023663;28;20132;-71
2023/03/30 03:18:46;;;;;;;15.65;8.45;;;9.20;99.90;;;;;;5014920;28;20076;-71
2023/03/30 03:21:12;;;;;;;13.10;7.60;;;9.20;99.90;;;;;;5043997;28;20079;-71
2023/03/30 03:23:38;;;;;;;10.82;7.85;;;9.20;99.90;;;;;;5024444;28;20116;-71
2023/03/30 03:26:05;;;;;;;12.70;8.25;;;9.20;99.90;;;;;;5004257;28;20370;-71
2023/03/30 03:28:31;;;;;;;11.85;7.28;;;9.30;99.90;;;;;;5030536;28;20549;-71
2023/03/30 03:30:58;;;;;;;10.35;7.93;;;9.30;99.90;;;;;;5021503;28;20057;-71
2023/03/30 03:33:25;;;;;;;12.55;7.35;;;9.30;99.90;;;;;;5014005;28;20429;-71
2023/03/30 03:35:52;;;;;;;13.88;8.27;;;9.30;99.90;;;;;;5027812;28;20045;-71
2023/03/30 03:38:21;;;;;;;11.70;7.32;;;9.40;99.90;;;;;;5030081;28;20045;-71
2023/03/30 03:40:54;;;;;;;12.85;7.30;;;9.50;99.90;;;;;;5031542;28;20053;-72
2023/03/30 03:43:20;;;;;;;13.57;6.95;;;9.50;99.90;;;;;;5001300;28;20058;-71
2023/03/30 03:45:46;;;;;;;11.85;6.97;;;9.60;99.90;;;;;;5022861;28;20049;-71
2023/03/30 03:48:13;;;;;;;13.55;7.47;;;9.60;99.90;;;;;;5014987;28;20057;-72
2023/03/30 03:50:39;;;;;;;12.07;6.60;;;9.70;99.90;;;;;;5029674;28;20045;-71
2023/03/30 03:53:04;;;;;;;11.27;6.13;;;9.70;99.90;;;;;;5019747;28;20099;-71
2023/03/30 03:55:33;;;;;;;10.23;6.22;;;9.80;99.90;;;;;;5028893;28;20133;-71
2023/03/30 03:57:59;;;;;;;11.32;7.10;;;9.80;99.90;;;;;;5024762;28;20472;-71
2023/03/30 04:00:25;;;;;;;12.18;6.72;;;9.80;99.90;;;;;;5013357;28;20041;-71
2023/03/30 04:02:51;;;;;;;11.13;6.88;;;9.80;99.90;;;;;;4996508;28;20037;-71
2023/03/30 04:05:18;;;;;;;10.68;6.50;;;9.80;99.90;;;;;;5038117;28;20375;-71
2023/03/30 04:07:45;;;;;;;10.50;6.40;;;9.80;99.90;;;;;;5021670;28;20048;-70
2023/03/30 04:10:11;;;;;;;10.35;5.57;;;9.80;99.90;;;;;;5038695;28;20042;-70
2023/03/30 04:12:37;;;;;;;8.40;5.75;;;9.90;99.90;;;;;;5032361;28;20111;-70
2023/03/30 04:15:04;;;;;;;11.00;6.60;;;9.90;99.90;;;;;;5011055;28;20115;-70
2023/03/30 04:17:32;;;;;;;11.95;6.45;;;9.80;99.90;;;;;;5015665;28;20079;-71
2023/03/30 04:20:03;;;;;;;9.80;5.72;;;9.90;99.90;;;;;;5034097;28;20507;-71
2023/03/30 04:22:32;;;;;;;8.85;5.95;;;9.80;99.90;;;;;;5007125;28;20424;-72
2023/03/30 04:25:02;;;;;;;11.60;6.18;;;9.80;99.90;;;;;;5023268;28;20044;-72
2023/03/30 04:27:28;;;;;;;9.70;5.50;;;9.80;99.90;;;;;;5034648;28;20048;-71
2023/03/30 04:29:57;;;;;;;15.93;6.82;;;9.80;99.90;;;;;;5037968;28;20049;-72
2023/03/30 04:32:23;;;;;;;9.68;5.95;;;9.80;99.90;;;;;;5032749;28;20107;-72
2023/03/30 04:34:53;;;;;;;13.02;6.55;;;9.80;99.90;;;;;;5006721;28;20061;-72
2023/03/30 04:37:29;;;;;;;10.75;6.03;;;9.80;99.90;;;;;;5033322;28;20049;-72
2023/03/30 04:39:57;;;;;;;8.00;5.25;;;9.80;99.90;;;;;;5024938;28;20052;-71
2023/03/30 04:42:29;;;;;;;11.85;5.60;;;9.90;99.90;;;;;;5025598;28;20132;-71
2023/03/30 04:44:58;;;;;;;10.02;5.43;;;9.90;99.90;;;;;;5008916;28;20056;-72
2023/03/30 04:47:24;;;;;;;9.55;5.53;;;9.90;99.90;;;;;;5007267;28;20146;-72
2023/03/30 04:49:50;;;;;;;9.10;5.38;;;9.90;99.90;;;;;;5021729;28;20478;-72
2023/03/30 04:52:16;;;;;;;10.13;4.85;;;10.00;99.90;;;;;;5013492;28;20126;-71
2023/03/30 04:54:42;;;;;;;14.25;4.72;;;10.10;99.90;;;;;;5026228;28;20095;-72
2023/03/30 04:57:08;;;;;;;9.05;5.22;;;10.00;99.90;;;;;;5033466;28;20119;-72
2023/03/30 04:59:33;;;;;;;9.68;4.88;;;10.10;99.90;;;;;;4994190;28;20045;-72
2023/03/30 05:01:59;;;;;;;11.95;4.88;;;10.10;99.90;;;;;;5036547;28;20054;-72
2023/03/30 05:04:25;;;;;;;10.57;6.05;;;10.10;99.90;;;;;;5035786;28;20526;-71
2023/03/30 05:06:51;;;;;;;10.13;5.45;;;10.10;99.90;;;;;;5047877;28;20471;-71
2023/03/30 05:09:17;;;;;;;8.48;4.60;;;10.10;99.90;;;;;;5030344;28;20061;-71
2023/03/30 05:11:42;;;;;;;7.72;4.63;;;10.10;99.90;;;;;;5040922;28;20175;-71
2023/03/30 05:14:08;;;;;;;7.40;4.55;;;10.10;99.90;;;;;;4998728;28;20069;-71
2023/03/30 05:16:34;;;;;;;8.43;4.80;;;10.20;99.90;;;;;;5042686;28;20589;-71
2023/03/30 05:19:00;;;;;;;12.85;4.70;;;10.30;99.90;;;;;;5029388;28;20049;-72
2023/03/30 05:21:25;;;;;;;12.20;4.80;;;10.40;99.90;;;;;;5014045;28;20045;-72
2023/03/30 05:23:51;;;;;;;9.85;4.53;;;10.40;99.90;;;;;;5042677;28;20037;-72
2023/03/30 05:26:17;;;;;;;8.70;4.00;;;10.40;99.90;;;;;;5034773;28;20044;-72
2023/03/30 05:28:43;;;;;;;8.30;4.20;;;10.40;99.90;;;;;;5027185;28;20454;-72
2023/03/30 05:31:08;;;;;;;9.63;4.63;;;10.40;99.90;;;;;;5038487;28;20048;-72
2023/03/30 05:33:34;;;;;;;7.25;4.45;;;10.40;99.90;;;;;;5037532;28;20053;-73
2023/03/30 05:36:00;;;;;;;8.95;4.53;;;10.40;99.90;;;;;;5015586;28;20085;-72
2023/03/30 05:38:25;;;;;;;8.82;4.53;;;10.40;99.90;;;;;;5038721;28;20103;-72
2023/03/30 05:40:53;;;;;;;7.43;4.45;;;10.50;99.90;;;;;;5010650;28;20439;-72
2023/03/30 05:43:19;;;;;;;9.60;4.03;;;10.50;99.90;;;;;;5031723;28;20064;-75
2023/03/30 05:45:45;;;;;;;11.30;4.25;;;10.50;99.90;;;;;;5028657;28;20160;-75
2023/03/30 05:48:11;;;;;;;7.10;3.80;;;10.60;99.90;;;;;;5011181;28;20045;-75
2023/03/30 05:50:36;;;;;;;7.70;4.68;;;10.60;99.90;;;;;;5016591;28;20541;-75
2023/03/30 05:53:03;;;;;;;10.63;4.65;;;10.80;99.90;;;;;;5010710;28;20495;-75
2023/03/30 05:55:29;;;;;;;10.05;4.88;;;10.90;99.90;;;;;;5003715;28;20040;-74
2023/03/30 05:57:55;;;;;;;12.02;4.10;;;10.90;99.90;;;;;;5042760;28;20051;-74
2023/03/30 06:00:21;;;;;;;8.75;3.58;;;11.10;99.90;;;;;;5049162;28;20389;-74
2023/03/30 06:02:47;;;;;;;8.73;3.75;;;11.30;99.90;;;;;;5006592;28;20057;-75
2023/03/30 06:05:14;;;;;;;10.10;4.07;;;11.70;99.90;;;;;;5028439;28;20374;-75
2023/03/30 06:07:39;;;;;;;11.25;2.97;;;11.70;99.90;;;;;;5043660;28;20041;-74
2023/03/30 06:10:06;;;;;;;16.58;4.45;;;12.20;99.90;;;;;;5010283;28;20480;-75
2023/03/30 06:12:32;;;;;;;12.27;2.90;;;12.50;99.90;;;;;;5019983;28;20078;-74
2023/03/30 06:15:01;;;;;;;8.73;2.88;;;12.40;99.90;;;;;;5032823;28;20053;-76
2023/03/30 06:17:28;;;;;;;;;;;12.50;99.90;;;;;;5030890;28;20044;-75
2023/03/30 06:19:54;;;;;;;6.82;2.80;;;12.70;99.90;;;;;;5043028;28;20385;-76
2023/03/30 06:22:20;;;;;;;6.78;2.13;;;12.80;99.90;;;;;;5010974;28;20075;-75
2023/03/30 06:24:46;;;;;;;7.57;2.33;;;12.90;99.90;;;;;;4993753;28;20045;-75
2023/03/30 06:27:11;;;;;;;6.68;2.55;;;13.00;99.90;;;;;;5025964;28;20049;-75
2023/03/30 06:29:37;;;;;;;6.80;2.08;;;12.90;99.90;;;;;;5032243;28;20130;-74
2023/03/30 06:32:03;;;;;;;7.78;2.28;;;13.00;99.90;;;;;;5026375;28;20348;-76
2023/03/30 06:34:29;;;;;;;6.15;2.05;;;13.10;99.90;;;;;;5029312;28;20549;-76
2023/03/30 06:36:56;;;;;;;7.90;2.00;;;13.20;99.90;;;;;;5028870;28;20390;-76
2023/03/30 06:39:21;;;;;;;10.45;2.58;;;13.20;99.90;;;;;;5006119;28;20045;-76
2023/03/30 06:41:47;;;;;;;9.40;2.30;;;13.20;99.90;;;;;;4998332;28;20587;-75
2023/03/30 06:44:16;;;;;;;5.82;2.47;;;13.30;99.90;;;;;;5038982;28;20582;-74
2023/03/30 06:46:42;;;;;;;10.23;2.20;;;13.30;99.90;;;;;;5027914;28;20053;-74
2023/03/30 06:49:10;;;;;;;9.95;2.15;;;13.30;99.90;;;;;;5026079;28;20052;-75
2023/03/30 06:51:36;;;;;;;4.75;2.30;;;13.20;99.90;;;;;;5020712;28;20519;-76
2023/03/30 06:54:03;;;;;;;8.77;2.85;;;13.30;99.90;;;;;;5021997;28;20538;-75
2023/03/30 06:56:30;;;;;;;10.73;2.33;;;13.30;99.90;;;;;;5036061;28;20045;-76
2023/03/30 06:58:56;;;;;;;9.70;2.47;;;13.20;99.90;;;;;;5030390;28;20044;-75
2023/03/30 07:01:22;;;;;;;3.72;1.80;;;13.30;99.90;;;;;;5021083;28;20041;-74
2023/03/30 07:03:50;;;;;;;7.43;2.47;;;13.30;99.90;;;;;;5040520;28;20056;-74
2023/03/30 07:06:16;;;;;;;;;;;13.30;99.90;;;;;;5013141;28;20462;-75
2023/03/30 07:08:41;;;;;;;8.65;2.30;;;13.40;99.90;;;;;;5035755;28;19924;-75
2023/03/30 07:11:07;;;;;;;8.07;2.15;;;13.40;99.90;;;;;;5030830;28;20060;-75
2023/03/30 07:13:33;;;;;;;7.97;2.50;;;13.50;99.90;;;;;;5028571;28;20044;-75
2023/03/30 07:15:59;;;;;;;11.18;2.17;;;13.50;99.90;;;;;;5013743;28;20064;-75
2023/03/30 07:18:25;;;;;;;7.38;2.38;;;13.50;99.90;;;;;;5027491;28;20040;-76
2023/03/30 07:20:50;;;;;;;6.45;2.20;;;13.70;99.90;;;;;;5007264;28;20048;-76
2023/03/30 07:23:18;;;;;;;7.55;2.58;;;13.80;99.90;;;;;;5041508;28;20068;-75
2023/03/30 07:25:44;;;;;;;6.82;2.60;;;13.70;99.90;;;;;;5028693;28;20053;-75
2023/03/30 07:28:10;;;;;;;12.50;2.88;;;13.80;99.90;;;;;;5023717;28;20056;-75
2023/03/30 07:30:36;;;;;;;10.70;2.88;;;13.90;99.90;;;;;;5041767;28;20044;-75
2023/03/30 07:33:02;;;;;;;6.97;2.40;;;13.90;99.90;;;;;;5025696;28;20044;-75
2023/03/30 07:35:28;;;;;;;8.25;2.75;;;14.00;99.90;;;;;;4995230;28;20128;-75
2023/03/30 07:37:53;;;;;;;7.05;2.33;;;14.00;99.90;;;;;;5002218;28;20576;-75
2023/03/30 07:40:20;;;;;;;6.68;2.30;;;14.00;99.90;;;;;;5027127;28;20382;-75
2023/03/30 07:42:46;;;;;;;8.65;2.10;;;14.10;99.90;;;;;;5041225;28;20056;-76
2023/03/30 07:45:12;;;;;;;7.85;2.15;;;14.10;99.90;;;;;;5031609;28;20424;-76
2023/03/30 07:47:39;;;;;;;9.02;2.05;;;14.30;99.90;;;;;;5010513;28;20386;-75
2023/03/30 07:50:07;;;;;;;6.60;1.67;;;14.30;99.90;;;;;;5026866;28;20047;-76
2023/03/30 07:52:33;;;;;;;;;;;14.30;99.90;;;;;;5024353;28;20477;-76
2023/03/30 07:54:59;;;;;;;8.75;2.13;;;14.30;99.90;;;;;;5045704;28;19917;-75
2023/03/30 07:57:25;;;;;;;15.60;2.63;;;14.40;99.90;;;;;;4990988;28;20122;-75
2023/03/30 07:59:51;;;;;;;8.48;2.45;;;14.40;99.90;;;;;;5006056;28;20399;-75
2023/03/30 08:02:17;;;;;;;7.53;2.67;;;14.40;99.90;;;;;;5040322;28;20124;-75
2023/03/30 08:04:43;;;;;;;7.45;1.88;;;14.40;99.90;;;;;;5038261;28;20129;-76
2023/03/30 08:07:10;;;;;;;7.70;2.17;;;14.40;99.90;;;;;;5029539;28;20373;-75
2023/03/30 08:09:35;;;;;;;10.30;3.35;;;14.40;99.90;;;;;;5022440;28;20401;-76
2023/03/30 08:12:01;;;;;;;8.80;2.35;;;14.50;99.90;;;;;;5035487;28;20049;-75
2023/03/30 08:14:27;;;;;;;6.07;2.58;;;14.50;99.90;;;;;;5024494;28;20053;-75
2023/03/30 08:16:54;;;;;;;7.88;2.10;;;14.50;99.90;;;;;;5031061;28;20057;-75
2023/03/30 08:19:20;;;;;;;9.00;2.17;;;14.60;99.90;;;;;;5024605;28;20208;-75
2023/03/30 08:21:46;;;;;;;11.23;2.55;;;14.60;99.90;;;;;;5020765;28;20049;-75
2023/03/30 08:24:12;;;;;;;7.55;2.47;;;14.60;99.90;;;;;;4992243;28;20477;-75
2023/03/30 08:26:38;;;;;;;8.23;2.58;;;14.60;99.90;;;;;;5040780;28;20127;-73
2023/03/30 08:29:03;;;;;;;7.95;2.38;;;14.70;99.90;;;;;;5047049;28;20076;-72
2023/03/30 08:31:32;;;;;;;7.40;2.60;;;14.70;99.90;;;;;;5030465;28;20570;-72
2023/03/30 08:33:58;;;;;;;6.07;2.08;;;14.70;99.90;;;;;;5004508;28;20053;-72
2023/03/30 08:36:24;;;;;;;12.55;3.13;;;14.70;99.90;;;;;;5039020;28;20519;-72
2023/03/30 08:38:50;;;;;;;9.98;3.30;;;14.80;99.90;;;;;;5003931;28;20057;-73
2023/03/30 08:41:28;;;;;;;8.95;3.10;;;14.80;99.90;;;;;;5025467;28;20045;-72
2023/03/30 08:44:39;;;;;;;5.82;2.20;;;14.90;99.90;;;;;;5033170;28;20041;-72
2023/03/30 08:47:10;;;;;;;10.07;2.45;;;15.10;99.90;;;;;;5046876;28;20060;-72
2023/03/30 08:49:40;;;;;;;11.48;3.20;;;15.10;99.90;;;;;;5010663;28;20045;-72
2023/03/30 08:52:06;;;;;;;9.93;3.00;;;15.20;99.90;;;;;;5022399;28;20526;-72
2023/03/30 08:54:33;;;;;;;14.63;3.20;;;15.20;99.90;;;;;;5026184;28;20045;-72
2023/03/30 08:57:36;;;;;;;10.50;2.50;;;15.20;99.90;;;;;;5007366;28;20354;-72
2023/03/30 09:00:29;;;;;;;7.57;2.60;;;15.20;99.90;;;;;;5034081;28;20056;-72
2023/03/30 09:03:13;;;;;;;12.68;2.58;;;15.20;99.90;;;;;;5041360;28;20063;-72
2023/03/30 09:05:48;;;;;;;10.20;2.30;;;15.30;99.90;;;;;;5012628;28;20465;-73
2023/03/30 09:08:19;;;;;;;8.85;2.13;;;15.40;99.90;;;;;;5011610;28;20056;-72
2023/03/30 09:10:51;;;;;;;8.43;2.90;;;15.30;99.90;;;;;;5020950;28;20077;-72
2023/03/30 09:13:19;;;;;;;8.32;2.30;;;15.30;99.90;;;;;;5044060;28;20053;-72
2023/03/30 09:16:01;;;;;;;9.07;2.58;;;15.30;99.90;;;;;;4996125;28;20158;-72
2023/03/30 09:18:33;;;;;;;10.57;2.85;;;15.30;99.90;;;;;;5018463;28;20160;-76
2023/03/30 09:21:00;;;;;;;9.80;3.08;;;15.40;99.90;;;;;;5027794;28;20074;-76
2023/03/30 09:23:28;;;;;;;7.22;3.15;;;15.50;99.90;;;;;;5015196;28;20045;-76
2023/03/30 09:26:13;;;;;;;8.93;3.20;;;15.60;99.90;;;;;;5044194;28;20366;-75
2023/03/30 09:28:59;;;;;;;7.53;3.60;;;15.60;99.90;;;;;;5027887;28;20045;-75
2023/03/30 09:31:44;;;;;;;9.40;2.40;;;15.60;99.90;;;;;;5029590;28;20048;-74
2023/03/30 09:34:28;;;;;;;7.22;2.95;;;15.70;99.90;;;;;;5027819;28;20128;-75
2023/03/30 09:37:03;;;;;;;20.30;3.85;;;15.90;99.90;;;;;;5029627;28;20049;-76
2023/03/30 09:39:30;;;;;;;7.53;2.40;;;15.90;99.90;;;;;;5043127;28;20036;-75
2023/03/30 09:42:15;;;;;;;11.77;2.97;;;16.00;99.90;;;;;;4997637;28;20037;-76
2023/03/30 09:44:46;;;;;;;9.30;2.70;;;16.10;99.90;;;;;;5032064;28;20042;-75
2023/03/30 09:47:25;;;;;;;11.40;2.70;;;16.20;99.90;;;;;;5032798;28;20056;-75
2023/03/30 09:50:01;;;;;;;8.65;2.75;;;16.20;99.90;;;;;;5041695;28;20505;-76
2023/03/30 09:52:28;;;;;;;7.85;2.42;;;16.20;99.90;;;;;;5006533;28;20470;-75
2023/03/30 09:54:54;;;;;;;7.10;2.40;;;16.10;99.90;;;;;;5041496;28;20044;-76
2023/03/30 09:57:24;;;;;;;10.27;2.88;;;16.10;99.90;;;;;;4999187;28;20046;-75
2023/03/30 09:59:51;;;;;;;9.30;2.47;;;16.10;99.90;;;;;;5013413;28;20433;-76
2023/03/30 10:02:19;;;;;;;10.73;2.53;;;16.10;99.90;;;;;;5039400;28;20140;-76
2023/03/30 10:04:59;;;;;;;8.48;2.47;;;16.10;99.90;;;;;;5013530;28;20064;-75
2023/03/30 10:07:33;;;;;;;5.78;2.17;;;16.00;99.90;;;;;;5050663;28;20470;-75
2023/03/30 10:10:00;;;;;;;5.63;2.25;;;16.00;99.90;;;;;;5033539;28;20049;-75
2023/03/30 10:12:32;;;;;;;8.82;2.30;;;16.00;99.90;;;;;;5013418;28;20045;-75
2023/03/30 10:15:00;;;;;;;7.45;2.28;;;16.00;99.90;;;;;;5013850;28;20501;-76
2023/03/30 10:17:26;;;;;;;10.40;2.35;;;16.20;99.90;;;;;;5025962;28;20056;-75
2023/03/30 10:19:52;;;;;;;7.40;2.20;;;16.20;99.90;;;;;;5029975;28;20041;-75
2023/03/30 10:22:22;;;;;;;7.35;2.15;;;16.20;99.90;;;;;;5033188;28;20045;-76
2023/03/30 10:24:49;;;;;;;9.95;2.92;;;16.30;99.90;;;;;;5014137;28;20462;-77
2023/03/30 10:27:15;;;;;;;8.07;2.90;;;16.30;99.90;;;;;;5030475;28;20060;-76
2023/03/30 10:29:45;;;;;;;7.68;2.28;;;16.30;99.90;;;;;;5025131;28;20049;-76
2023/03/30 10:32:15;;;;;;;7.15;2.50;;;16.20;99.90;;;;;;5026756;28;20057;-77
2023/03/30 10:34:43;;;;;;;7.38;2.00;;;16.20;99.90;;;;;;4997445;28;20049;-75
2023/03/30 10:37:22;;;;;;;6.38;2.25;;;16.20;99.90;;;;;;5005510;28;20041;-76
2023/03/30 10:39:47;;;;;;;11.68;2.40;;;16.20;99.90;;;;;;5027083;28;20430;-75
2023/03/30 10:42:16;;;;;;;5.72;2.20;;;16.10;99.90;;;;;;5019305;28;20088;-73
2023/03/30 10:44:44;;;;;;;10.30;3.05;;;16.20;99.90;;;;;;5022518;28;20186;-74
2023/03/30 10:47:25;;;;;;;6.27;2.70;;;16.30;99.90;;;;;;5026928;28;20041;-73
2023/03/30 10:50:25;;;;;;;8.68;2.38;;;16.40;99.90;;;;;;5044947;28;20132;-73
2023/03/30 10:52:57;;;;;;;6.22;2.97;;;16.50;99.90;;;;;;5014126;28;20049;-74
2023/03/30 10:55:42;;;;;;;6.80;2.85;;;16.40;99.90;;;;;;5042038;28;20432;-73
2023/03/30 10:58:42;;;;;;;9.48;3.03;;;16.30;99.90;;;;;;5046581;28;20147;-73
2023/03/30 11:02:00;;;;;;;10.50;3.30;;;16.50;99.90;;;;;;5049775;28;20140;-74
2023/03/30 11:04:31;;;;;;;7.95;2.88;;;16.60;99.90;;;;;;5022681;28;20465;-73
2023/03/30 11:06:56;;;;;;;6.32;2.90;;;16.50;99.90;;;;;;5034973;28;20470;-73
2023/03/30 11:09:31;;;;;;;11.00;3.28;;;16.30;99.90;;;;;;5022752;28;20140;-73
2023/03/30 11:12:02;;;;;;;8.90;3.08;;;16.20;99.90;;;;;;5010187;28;20053;-73
2023/03/30 11:14:43;;;;;;;12.55;2.90;;;16.10;99.90;;;;;;4992114;28;20128;-73
2023/03/30 11:17:18;;;;;;;11.43;3.08;;;15.90;99.90;;;;;;5029071;28;20538;-73
2023/03/30 11:19:47;;;;;;;6.18;3.15;;;15.90;99.90;;;;;;5003365;28;20060;-73
2023/03/30 11:22:40;;;;;;;7.25;2.90;;;15.60;99.90;;;;;;5035253;28;20335;-73
2023/03/30 11:25:21;;;;;;;4.70;1.63;;;14.80;99.90;;;;;;5037225;28;20045;-73
2023/03/30 11:28:25;;;;;;;6.85;2.15;;;13.70;99.90;;;;;;5007147;28;20041;-73
2023/03/30 11:30:53;;;;;;;5.90;1.83;;;13.50;99.90;;;;;;5027451;28;20122;-72
2023/03/30 11:33:28;;;;;;;10.40;2.15;;;13.50;99.90;;;;;;5025015;28;20036;-73
2023/03/30 11:36:04;;;;;;;5.53;1.98;;;13.20;99.90;;;;;;5022134;28;20478;-74
2023/03/30 11:38:46;;;;;;;4.03;1.90;;;13.30;99.90;;;;;;5024942;28;20056;-73
2023/03/30 11:41:16;;;;;;;6.63;1.73;;;13.10;99.90;;;;;;5027855;28;20056;-73
2023/03/30 11:43:42;;;;;;;6.85;2.38;;;13.00;99.90;;;;;;4995825;28;20041;-73
2023/03/30 11:46:24;;;;;;;6.68;1.92;;;12.80;99.90;;;;;;5007656;28;20048;-72
2023/03/30 11:48:54;;;;;;;4.72;1.85;;;12.60;99.90;;;;;;5039939;28;20045;-74
2023/03/30 11:51:36;;;;;;;4.22;1.60;;;12.60;99.90;;;;;;5025538;28;20053;-73
2023/03/30 11:54:23;;;;;;;3.13;1.55;;;12.50;99.90;;;;;;5010673;28;20049;-74
2023/03/30 11:57:11;;;;;;;5.20;1.67;;;12.50;99.90;;;;;;5036091;28;20110;-74
2023/03/30 11:59:52;;;;;;;;;;;12.60;99.90;;;;;;5019636;28;20133;-73
2023/03/30 12:02:24;;;;;;;4.10;1.23;;;12.80;99.90;;;;;;5041109;28;19917;-74
2023/03/30 12:05:22;;;;;;;5.00;1.40;;;13.00;99.90;;;;;;5023512;28;20112;-75
2023/03/30 12:07:48;;;;;;;;;;;13.30;99.90;;;;;;5036798;28;20052;-75
2023/03/30 12:10:24;;;;;;;3.70;1.15;;;13.30;99.90;;;;;;5039226;28;19913;-75
2023/03/30 12:12:50;;;;;;;7.88;1.45;;;13.30;99.90;;;;;;5024100;28;20049;-75
2023/03/30 12:15:30;;;;;;;11.65;2.00;;;13.20;99.90;;;;;;5026912;28;20098;-76
2023/03/30 12:17:59;;;;;;;10.48;2.03;;;13.20;99.90;;;;;;5035834;28;20479;-75
2023/03/30 12:20:36;;;;;;;6.35;1.48;;;13.30;99.90;;;;;;5038809;28;20052;-75
2023/03/30 12:23:32;;;;;;;5.00;1.50;;;13.30;99.90;;;;;;5010697;28;20037;-75
2023/03/30 12:26:22;;;;;;;6.13;1.38;;;13.30;99.90;;;;;;5025037;28;20044;-75
2023/03/30 12:29:12;;;;;;;5.53;1.50;;;13.30;99.90;;;;;;5018521;28;20053;-72
2023/03/30 12:32:01;;;;;;;9.60;1.83;;;13.40;99.90;;;;;;5047651;28;20615;-72
2023/03/30 12:34:29;;;;;;;6.88;1.90;;;13.40;99.90;;;;;;5042323;28;20046;-74
2023/03/30 12:37:01;;;;;;;7.57;1.67;;;13.40;99.90;;;;;;5012066;28;20057;-73
2023/03/30 12:39:30;;;;;;;3.35;1.10;;;13.50;99.90;;;;;;5047015;28;20134;-72
2023/03/30 12:42:34;;;;;;;9.32;2.10;;;13.50;99.90;;;;;;4994513;28;20045;-73
2023/03/30 12:45:09;;;;;;;10.30;1.95;;;13.70;99.90;;;;;;5021722;28;20044;-73
2023/03/30 12:47:47;;;;;;;8.32;1.48;;;14.10;99.90;;;;;;5046101;28;20055;-72
2023/03/30 12:50:18;;;;;;;7.57;1.55;;;14.50;99.90;;;;;;5050203;28;20051;-72
2023/03/30 12:53:25;;;;;;;9.52;2.10;;;14.90;99.90;;;;;;5050899;28;20529;-72
2023/03/30 12:56:03;;;;;;;5.45;1.70;;;15.50;99.90;;;;;;5037501;28;20059;-73
2023/03/30 12:58:31;;;;;;;7.10;2.30;;;15.90;99.90;;;;;;5039588;28;20064;-73
2023/03/30 13:01:03;;;;;;;5.57;1.80;;;16.10;99.90;;;;;;5040089;28;20041;-73
2023/03/30 13:03:39;;;;;;;6.82;2.20;;;16.20;99.90;;;;;;5038170;28;20038;-73
2023/03/30 13:06:10;;;;;;;10.02;2.10;;;16.70;99.90;;;;;;5033984;28;20044;-73
2023/03/30 13:08:40;;;;;;;7.50;2.05;;;16.40;99.90;;;;;;5032865;28;20444;-73